Schedule Details

Flight Number: ASX309X
Departure: Luxembourg Findel Airport (ELLX) at 12:00Z
Arrival: Gdansk im. Lecha Walesy (EPGD) at 14:00Z

Weather Information
ELLX 180620Z 09002KT 4000 R06/P2000N NSC M02/M03 Q1025 NOSIG
EPGD 180630Z 29002KT 8000 SCT041 M03/M04 Q1026

Schedule Frequency

Route Map